Nottingham, PA

11:27 AM EDT on September 21, 2014 (GMT -0400)
solanco | Change Station
CLOSE
Current Station
Personal Weather Station
Location: Nottingham, PA
Elevation: 350 ft
Nearby Weather Stations

Elev 350 ft 39.77 °N, 76.07 °W | Updated 12 minutes ago

Partly Cloudy
Partly Cloudy
66.2 °F
Feels Like 66.2 °F
N
4.0
Wind Variable Wind from West
Gusts 5.8 mph

Today
High -- | Low -- °F
--% Chance of Precip.
Yesterday
High -- | Low -- °F
Precip. -- in
6:50 AM 7:03 PM
Waning Crescent, 6% visible
Pressure 29.86 in
Visibility 10.0 miles
Clouds Clear
Dew Point 56 °F
Humidity 70%
Rainfall 0.00 in
Snow Depth Not available.
UV 6 out of 12
Pollen 3.60 out of 12
Air Quality Not available.
Flu Activity Not available.
METAR KMQS 211515Z AUTO 00000KT 10SM CLR 19/17 A2986 RMK AO2

More Conditions Fewer Conditions

Pressure 29.86 in
Visibility 10.0 miles
Clouds Clear
Dew Point 56 °F
Humidity 70%
Rainfall 0.00 in
Snow Depth Not available.
UV 6 out of 12
Pollen 3.60 out of 12
Air Quality Not available.
Flu Activity Not available.
METAR KMQS 211515Z AUTO 00000KT 10SM CLR 19/17 A2986 RMK AO2

More Conditions Fewer Conditions

10-Day Weather Forecast

Almanac

Astronomy

Sep. 21, 2014 Rise Set
Actual Time 6:50 AM EDT 7:03 PM EDT
Civil Twilight 6:23 AM EDT 7:29 PM EDT
Nautical Twilight 5:52 AM EDT 8:01 PM EDT
Astronomical Twilight 5:20 AM EDT 8:33 PM EDT
Moon 4:22 AM EDT 5:37 PM EDT
Length of Visible Light 13h 05m
Length of Day
12h 12m
Tomorrow will be 2m 34s shorter.
Waning Crescent, 6% of the Moon is Illuminated
Today
Waning Crescent
Sep 24
New
Oct 1
First Quarter
Oct 8
Full
Oct 15
Last Quarter

Today's Extremes

State Highs State Lows

Community

WunderPhotos

Upload Photos

1,755,166 photos uploaded!

Nearby

Snow Depth

Station Depth Elevation
No new snow has been reported.

Earthquake Activity

City Distance Mag. Time & Date
No recent earthquake activity has been reported nearby.
Minimum magnitude displayed is 2.5.

Coastal Water Temperatures

Place Temperature
Tolchester Beach, MD 73.0 °F
Chesapeake City, MD 72.0 °F
Baltimore, MD 75.0 °F

Nearby Weather Stations